sensor_id;sensor_type;location;lat;lon;timestamp;P1;durP1;ratioP1;P2;durP2;ratioP2
27576;SDS011;15011;53.380;10.034;2023-03-20T00:03:50;70.50;;;27.58;;
27576;SDS011;15011;53.380;10.034;2023-03-20T00:08:51;67.13;;;27.92;;
27576;SDS011;15011;53.380;10.034;2023-03-20T00:13:53;79.90;;;29.35;;
27576;SDS011;15011;53.380;10.034;2023-03-20T00:18:57;75.88;;;29.85;;
27576;SDS011;15011;53.380;10.034;2023-03-20T00:23:58;76.00;;;27.63;;
27576;SDS011;15011;53.380;10.034;2023-03-20T00:28:59;76.65;;;29.08;;
27576;SDS011;15011;53.380;10.034;2023-03-20T00:34:02;65.90;;;27.45;;
27576;SDS011;15011;53.380;10.034;2023-03-20T00:39:04;95.82;;;31.25;;
27576;SDS011;15011;53.380;10.034;2023-03-20T00:44:28;80.97;;;27.35;;
27576;SDS011;15011;53.380;10.034;2023-03-20T00:49:32;80.53;;;27.65;;
27576;SDS011;15011;53.380;10.034;2023-03-20T00:59:37;79.20;;;28.25;;
27576;SDS011;15011;53.380;10.034;2023-03-20T01:04:40;76.47;;;28.35;;
27576;SDS011;15011;53.380;10.034;2023-03-20T01:09:41;81.13;;;28.92;;
27576;SDS011;15011;53.380;10.034;2023-03-20T01:14:42;63.13;;;27.88;;
27576;SDS011;15011;53.380;10.034;2023-03-20T01:19:42;67.20;;;27.58;;
27576;SDS011;15011;53.380;10.034;2023-03-20T01:24:43;73.05;;;28.05;;
27576;SDS011;15011;53.380;10.034;2023-03-20T01:29:44;66.00;;;27.05;;
27576;SDS011;15011;53.380;10.034;2023-03-20T01:34:45;65.90;;;26.63;;
27576;SDS011;15011;53.380;10.034;2023-03-20T01:39:46;75.95;;;30.27;;
27576;SDS011;15011;53.380;10.034;2023-03-20T01:44:47;90.00;;;31.83;;
27576;SDS011;15011;53.380;10.034;2023-03-20T01:55:21;78.93;;;29.10;;
27576;SDS011;15011;53.380;10.034;2023-03-20T02:00:22;66.20;;;28.90;;
27576;SDS011;15011;53.380;10.034;2023-03-20T02:05:22;75.00;;;30.98;;
27576;SDS011;15011;53.380;10.034;2023-03-20T02:10:23;72.15;;;29.73;;
27576;SDS011;15011;53.380;10.034;2023-03-20T02:15:25;72.50;;;28.60;;
27576;SDS011;15011;53.380;10.034;2023-03-20T02:36:18;80.95;;;30.83;;
27576;SDS011;15011;53.380;10.034;2023-03-20T02:41:29;76.00;;;29.85;;
27576;SDS011;15011;53.380;10.034;2023-03-20T02:46:40;74.57;;;28.40;;
27576;SDS011;15011;53.380;10.034;2023-03-20T02:51:58;66.90;;;27.38;;
27576;SDS011;15011;53.380;10.034;2023-03-20T03:02:21;62.83;;;25.33;;
27576;SDS011;15011;53.380;10.034;2023-03-20T03:07:34;54.70;;;23.60;;
27576;SDS011;15011;53.380;10.034;2023-03-20T03:12:39;51.00;;;21.92;;
27576;SDS011;15011;53.380;10.034;2023-03-20T03:17:42;53.78;;;22.65;;
27576;SDS011;15011;53.380;10.034;2023-03-20T03:22:44;45.30;;;20.40;;
27576;SDS011;15011;53.380;10.034;2023-03-20T03:27:45;43.13;;;19.30;;
27576;SDS011;15011;53.380;10.034;2023-03-20T03:43:23;44.50;;;20.50;;
27576;SDS011;15011;53.380;10.034;2023-03-20T03:48:35;38.78;;;18.35;;
27576;SDS011;15011;53.380;10.034;2023-03-20T03:53:44;39.70;;;18.48;;
27576;SDS011;15011;53.380;10.034;2023-03-20T03:58:50;34.63;;;15.18;;
27576;SDS011;15011;53.380;10.034;2023-03-20T04:03:53;30.38;;;13.90;;
27576;SDS011;15011;53.380;10.034;2023-03-20T04:08:56;24.13;;;12.60;;
27576;SDS011;15011;53.380;10.034;2023-03-20T04:13:56;26.80;;;12.90;;
27576;SDS011;15011;53.380;10.034;2023-03-20T04:18:57;22.45;;;10.40;;
27576;SDS011;15011;53.380;10.034;2023-03-20T04:23:57;18.42;;;9.73;;
27576;SDS011;15011;53.380;10.034;2023-03-20T04:28:58;20.70;;;9.90;;
27576;SDS011;15011;53.380;10.034;2023-03-20T04:33:58;19.38;;;9.85;;
27576;SDS011;15011;53.380;10.034;2023-03-20T04:38:58;20.10;;;10.30;;
27576;SDS011;15011;53.380;10.034;2023-03-20T04:43:59;19.42;;;10.02;;
27576;SDS011;15011;53.380;10.034;2023-03-20T04:48:59;21.95;;;10.07;;
27576;SDS011;15011;53.380;10.034;2023-03-20T04:54:00;16.38;;;9.43;;
27576;SDS011;15011;53.380;10.034;2023-03-20T04:59:00;17.77;;;9.02;;
27576;SDS011;15011;53.380;10.034;2023-03-20T05:04:01;55.47;;;23.23;;
27576;SDS011;15011;53.380;10.034;2023-03-20T05:09:01;14.65;;;8.25;;
27576;SDS011;15011;53.380;10.034;2023-03-20T05:14:02;15.90;;;7.85;;
27576;SDS011;15011;53.380;10.034;2023-03-20T05:19:03;12.88;;;7.57;;
27576;SDS011;15011;53.380;10.034;2023-03-20T05:24:04;14.02;;;8.45;;
27576;SDS011;15011;53.380;10.034;2023-03-20T05:29:05;14.85;;;7.70;;
27576;SDS011;15011;53.380;10.034;2023-03-20T05:34:05;11.52;;;7.25;;
27576;SDS011;15011;53.380;10.034;2023-03-20T05:39:06;12.02;;;7.57;;
27576;SDS011;15011;53.380;10.034;2023-03-20T05:44:06;12.77;;;7.38;;
27576;SDS011;15011;53.380;10.034;2023-03-20T05:49:07;12.65;;;6.55;;
27576;SDS011;15011;53.380;10.034;2023-03-20T05:54:07;12.30;;;6.90;;
27576;SDS011;15011;53.380;10.034;2023-03-20T05:59:08;11.73;;;7.47;;
27576;SDS011;15011;53.380;10.034;2023-03-20T06:04:08;16.23;;;7.28;;
27576;SDS011;15011;53.380;10.034;2023-03-20T06:09:09;14.80;;;7.70;;
27576;SDS011;15011;53.380;10.034;2023-03-20T06:14:09;11.82;;;6.55;;
27576;SDS011;15011;53.380;10.034;2023-03-20T06:19:10;14.85;;;7.07;;
27576;SDS011;15011;53.380;10.034;2023-03-20T06:24:10;12.65;;;6.30;;
27576;SDS011;15011;53.380;10.034;2023-03-20T06:29:11;11.25;;;7.00;;
27576;SDS011;15011;53.380;10.034;2023-03-20T06:34:11;9.73;;;5.95;;
27576;SDS011;15011;53.380;10.034;2023-03-20T06:39:12;11.85;;;6.97;;
27576;SDS011;15011;53.380;10.034;2023-03-20T06:44:14;10.10;;;6.10;;
27576;SDS011;15011;53.380;10.034;2023-03-20T06:49:14;11.32;;;7.00;;
27576;SDS011;15011;53.380;10.034;2023-03-20T06:54:16;12.35;;;6.30;;
27576;SDS011;15011;53.380;10.034;2023-03-20T06:59:16;10.52;;;5.68;;
27576;SDS011;15011;53.380;10.034;2023-03-20T07:04:17;11.27;;;6.25;;
27576;SDS011;15011;53.380;10.034;2023-03-20T07:09:17;11.50;;;6.20;;
27576;SDS011;15011;53.380;10.034;2023-03-20T07:14:18;14.50;;;6.30;;
27576;SDS011;15011;53.380;10.034;2023-03-20T07:19:18;11.13;;;6.37;;
27576;SDS011;15011;53.380;10.034;2023-03-20T07:24:19;13.43;;;6.70;;
27576;SDS011;15011;53.380;10.034;2023-03-20T07:29:19;12.48;;;7.00;;
27576;SDS011;15011;53.380;10.034;2023-03-20T07:34:20;9.43;;;6.75;;
27576;SDS011;15011;53.380;10.034;2023-03-20T07:39:20;11.63;;;6.85;;
27576;SDS011;15011;53.380;10.034;2023-03-20T07:44:21;13.02;;;7.45;;
27576;SDS011;15011;53.380;10.034;2023-03-20T07:49:22;14.40;;;7.32;;
27576;SDS011;15011;53.380;10.034;2023-03-20T07:54:22;12.38;;;7.43;;
27576;SDS011;15011;53.380;10.034;2023-03-20T07:59:24;13.18;;;8.30;;
27576;SDS011;15011;53.380;10.034;2023-03-20T08:04:25;9.68;;;6.60;;
27576;SDS011;15011;53.380;10.034;2023-03-20T08:09:26;10.77;;;7.07;;
27576;SDS011;15011;53.380;10.034;2023-03-20T08:14:26;14.88;;;7.15;;
27576;SDS011;15011;53.380;10.034;2023-03-20T08:19:26;12.02;;;6.82;;
27576;SDS011;15011;53.380;10.034;2023-03-20T08:24:27;12.57;;;7.10;;
27576;SDS011;15011;53.380;10.034;2023-03-20T08:29:28;11.82;;;7.38;;
27576;SDS011;15011;53.380;10.034;2023-03-20T08:34:29;13.48;;;7.82;;
27576;SDS011;15011;53.380;10.034;2023-03-20T08:44:32;11.27;;;7.70;;
27576;SDS011;15011;53.380;10.034;2023-03-20T08:49:33;12.45;;;8.38;;
27576;SDS011;15011;53.380;10.034;2023-03-20T08:54:33;14.40;;;8.55;;
27576;SDS011;15011;53.380;10.034;2023-03-20T08:59:34;17.75;;;8.93;;
27576;SDS011;15011;53.380;10.034;2023-03-20T09:04:35;12.80;;;7.90;;
27576;SDS011;15011;53.380;10.034;2023-03-20T09:09:35;13.32;;;7.75;;
27576;SDS011;15011;53.380;10.034;2023-03-20T09:14:36;12.55;;;7.90;;
27576;SDS011;15011;53.380;10.034;2023-03-20T09:19:37;15.35;;;8.43;;
27576;SDS011;15011;53.380;10.034;2023-03-20T09:24:44;15.38;;;7.97;;
27576;SDS011;15011;53.380;10.034;2023-03-20T09:34:46;14.10;;;7.82;;
27576;SDS011;15011;53.380;10.034;2023-03-20T09:39:46;16.17;;;7.17;;
27576;SDS011;15011;53.380;10.034;2023-03-20T09:55:07;12.77;;;7.65;;
27576;SDS011;15011;53.380;10.034;2023-03-20T10:00:16;12.95;;;6.75;;
27576;SDS011;15011;53.380;10.034;2023-03-20T10:10:19;13.27;;;7.65;;
27576;SDS011;15011;53.380;10.034;2023-03-20T10:15:34;19.02;;;8.32;;
27576;SDS011;15011;53.380;10.034;2023-03-20T10:20:53;12.95;;;7.63;;
27576;SDS011;15011;53.380;10.034;2023-03-20T10:25:58;11.77;;;6.85;;
27576;SDS011;15011;53.380;10.034;2023-03-20T10:41:42;13.10;;;6.35;;
27576;SDS011;15011;53.380;10.034;2023-03-20T10:46:47;10.25;;;6.45;;
27576;SDS011;15011;53.380;10.034;2023-03-20T10:51:51;13.00;;;5.75;;
27576;SDS011;15011;53.380;10.034;2023-03-20T11:01:55;29.67;;;12.18;;
27576;SDS011;15011;53.380;10.034;2023-03-20T11:06:59;12.68;;;6.10;;
27576;SDS011;15011;53.380;10.034;2023-03-20T11:12:12;17.65;;;5.85;;
27576;SDS011;15011;53.380;10.034;2023-03-20T11:17:19;12.50;;;6.05;;
27576;SDS011;15011;53.380;10.034;2023-03-20T11:27:29;11.13;;;5.40;;
27576;SDS011;15011;53.380;10.034;2023-03-20T11:32:32;9.40;;;5.88;;
27576;SDS011;15011;53.380;10.034;2023-03-20T11:37:35;30.88;;;11.65;;
27576;SDS011;15011;53.380;10.034;2023-03-20T11:42:35;9.57;;;5.78;;
27576;SDS011;15011;53.380;10.034;2023-03-20T11:47:36;13.23;;;5.78;;
27576;SDS011;15011;53.380;10.034;2023-03-20T11:52:38;13.32;;;5.68;;
27576;SDS011;15011;53.380;10.034;2023-03-20T11:57:39;14.73;;;6.15;;
27576;SDS011;15011;53.380;10.034;2023-03-20T12:02:40;16.67;;;5.77;;
27576;SDS011;15011;53.380;10.034;2023-03-20T12:07:41;15.57;;;5.93;;
27576;SDS011;15011;53.380;10.034;2023-03-20T12:28:25;10.07;;;5.60;;
27576;SDS011;15011;53.380;10.034;2023-03-20T12:33:36;12.73;;;6.20;;
27576;SDS011;15011;53.380;10.034;2023-03-20T12:38:43;10.38;;;5.88;;
27576;SDS011;15011;53.380;10.034;2023-03-20T13:05:20;11.38;;;5.32;;
27576;SDS011;15011;53.380;10.034;2023-03-20T13:10:49;10.43;;;5.68;;
27576;SDS011;15011;53.380;10.034;2023-03-20T13:21:23;8.43;;;5.20;;
27576;SDS011;15011;53.380;10.034;2023-03-20T13:37:18;14.93;;;5.32;;
27576;SDS011;15011;53.380;10.034;2023-03-20T13:42:22;7.55;;;5.03;;
27576;SDS011;15011;53.380;10.034;2023-03-20T13:47:25;9.32;;;4.55;;
27576;SDS011;15011;53.380;10.034;2023-03-20T13:52:32;15.50;;;5.30;;
27576;SDS011;15011;53.380;10.034;2023-03-20T13:57:44;12.60;;;5.07;;
27576;SDS011;15011;53.380;10.034;2023-03-20T14:13:26;15.35;;;7.28;;
27576;SDS011;15011;53.380;10.034;2023-03-20T14:18:29;11.68;;;5.15;;
27576;SDS011;15011;53.380;10.034;2023-03-20T14:29:20;12.98;;;4.80;;
27576;SDS011;15011;53.380;10.034;2023-03-20T14:34:21;11.57;;;4.45;;
27576;SDS011;15011;53.380;10.034;2023-03-20T14:44:47;9.23;;;5.57;;
27576;SDS011;15011;53.380;10.034;2023-03-20T15:00:24;14.82;;;5.97;;
27576;SDS011;15011;53.380;10.034;2023-03-20T15:05:27;12.25;;;5.50;;
27576;SDS011;15011;53.380;10.034;2023-03-20T15:10:29;17.73;;;6.53;;
27576;SDS011;15011;53.380;10.034;2023-03-20T15:15:30;13.10;;;6.28;;
27576;SDS011;15011;53.380;10.034;2023-03-20T15:20:31;16.45;;;6.45;;
27576;SDS011;15011;53.380;10.034;2023-03-20T15:25:35;13.00;;;6.35;;
27576;SDS011;15011;53.380;10.034;2023-03-20T15:30:44;12.73;;;6.60;;
27576;SDS011;15011;53.380;10.034;2023-03-20T15:35:45;15.85;;;6.60;;
27576;SDS011;15011;53.380;10.034;2023-03-20T15:40:46;13.60;;;6.43;;
27576;SDS011;15011;53.380;10.034;2023-03-20T15:45:47;14.05;;;7.20;;
27576;SDS011;15011;53.380;10.034;2023-03-20T15:50:52;12.83;;;6.73;;
27576;SDS011;15011;53.380;10.034;2023-03-20T15:56:00;14.77;;;6.10;;
27576;SDS011;15011;53.380;10.034;2023-03-20T16:01:04;16.08;;;6.60;;
27576;SDS011;15011;53.380;10.034;2023-03-20T16:06:07;16.15;;;6.28;;
27576;SDS011;15011;53.380;10.034;2023-03-20T16:11:13;16.50;;;7.40;;
27576;SDS011;15011;53.380;10.034;2023-03-20T16:16:16;10.70;;;6.20;;
27576;SDS011;15011;53.380;10.034;2023-03-20T16:21:24;18.08;;;6.78;;
27576;SDS011;15011;53.380;10.034;2023-03-20T16:26:27;17.00;;;6.05;;
27576;SDS011;15011;53.380;10.034;2023-03-20T16:31:32;12.07;;;6.63;;
27576;SDS011;15011;53.380;10.034;2023-03-20T16:36:35;13.68;;;6.35;;
27576;SDS011;15011;53.380;10.034;2023-03-20T16:41:37;12.80;;;6.22;;
27576;SDS011;15011;53.380;10.034;2023-03-20T16:51:59;14.07;;;6.55;;
27576;SDS011;15011;53.380;10.034;2023-03-20T16:57:08;15.07;;;6.18;;
27576;SDS011;15011;53.380;10.034;2023-03-20T17:02:29;23.45;;;13.77;;
27576;SDS011;15011;53.380;10.034;2023-03-20T17:07:32;11.80;;;5.72;;
27576;SDS011;15011;53.380;10.034;2023-03-20T17:12:32;12.93;;;6.22;;
27576;SDS011;15011;53.380;10.034;2023-03-20T17:17:33;14.93;;;6.53;;
27576;SDS011;15011;53.380;10.034;2023-03-20T17:22:33;9.93;;;5.35;;
27576;SDS011;15011;53.380;10.034;2023-03-20T17:27:35;9.65;;;5.10;;
27576;SDS011;15011;53.380;10.034;2023-03-20T17:37:37;15.43;;;6.00;;
27576;SDS011;15011;53.380;10.034;2023-03-20T17:42:38;11.02;;;6.68;;
27576;SDS011;15011;53.380;10.034;2023-03-20T17:47:39;14.75;;;6.53;;
27576;SDS011;15011;53.380;10.034;2023-03-20T17:52:40;9.45;;;6.57;;
27576;SDS011;15011;53.380;10.034;2023-03-20T17:57:41;15.83;;;6.93;;
27576;SDS011;15011;53.380;10.034;2023-03-20T18:02:42;10.60;;;6.57;;
27576;SDS011;15011;53.380;10.034;2023-03-20T18:07:42;18.05;;;6.28;;
27576;SDS011;15011;53.380;10.034;2023-03-20T18:12:43;17.00;;;6.78;;
27576;SDS011;15011;53.380;10.034;2023-03-20T18:17:44;14.65;;;5.95;;
27576;SDS011;15011;53.380;10.034;2023-03-20T18:22:44;15.75;;;6.00;;
27576;SDS011;15011;53.380;10.034;2023-03-20T18:27:44;12.45;;;5.80;;
27576;SDS011;15011;53.380;10.034;2023-03-20T18:32:45;13.82;;;6.13;;
27576;SDS011;15011;53.380;10.034;2023-03-20T18:37:46;18.17;;;6.85;;
27576;SDS011;15011;53.380;10.034;2023-03-20T18:42:46;15.35;;;7.70;;
27576;SDS011;15011;53.380;10.034;2023-03-20T18:47:47;11.90;;;6.60;;
27576;SDS011;15011;53.380;10.034;2023-03-20T18:52:48;10.82;;;6.45;;
27576;SDS011;15011;53.380;10.034;2023-03-20T18:57:50;18.17;;;6.22;;
27576;SDS011;15011;53.380;10.034;2023-03-20T19:02:51;11.30;;;6.47;;
27576;SDS011;15011;53.380;10.034;2023-03-20T19:07:54;14.32;;;6.10;;
27576;SDS011;15011;53.380;10.034;2023-03-20T19:12:55;13.10;;;6.70;;
27576;SDS011;15011;53.380;10.034;2023-03-20T19:17:56;14.57;;;6.78;;
27576;SDS011;15011;53.380;10.034;2023-03-20T19:22:57;16.02;;;6.00;;
27576;SDS011;15011;53.380;10.034;2023-03-20T19:27:58;12.73;;;5.72;;
27576;SDS011;15011;53.380;10.034;2023-03-20T19:32:59;12.68;;;5.88;;
27576;SDS011;15011;53.380;10.034;2023-03-20T19:38:00;14.18;;;6.22;;
27576;SDS011;15011;53.380;10.034;2023-03-20T19:43:01;13.55;;;6.72;;
27576;SDS011;15011;53.380;10.034;2023-03-20T19:48:02;15.95;;;6.25;;
27576;SDS011;15011;53.380;10.034;2023-03-20T19:53:06;98.78;;;51.25;;
27576;SDS011;15011;53.380;10.034;2023-03-20T19:58:09;12.48;;;6.35;;
27576;SDS011;15011;53.380;10.034;2023-03-20T20:03:18;14.13;;;7.28;;
27576;SDS011;15011;53.380;10.034;2023-03-20T20:08:22;14.50;;;6.45;;
27576;SDS011;15011;53.380;10.034;2023-03-20T20:13:24;14.43;;;6.93;;
27576;SDS011;15011;53.380;10.034;2023-03-20T20:18:27;12.98;;;7.13;;
27576;SDS011;15011;53.380;10.034;2023-03-20T20:23:28;14.90;;;7.50;;
27576;SDS011;15011;53.380;10.034;2023-03-20T20:28:28;11.13;;;6.97;;
27576;SDS011;15011;53.380;10.034;2023-03-20T20:33:30;15.18;;;8.07;;
27576;SDS011;15011;53.380;10.034;2023-03-20T20:38:32;13.90;;;8.73;;
27576;SDS011;15011;53.380;10.034;2023-03-20T20:43:32;15.05;;;10.77;;
27576;SDS011;15011;53.380;10.034;2023-03-20T20:48:33;14.05;;;8.52;;
27576;SDS011;15011;53.380;10.034;2023-03-20T20:53:33;15.15;;;9.35;;
27576;SDS011;15011;53.380;10.034;2023-03-20T20:58:34;19.90;;;10.35;;
27576;SDS011;15011;53.380;10.034;2023-03-20T21:03:34;19.27;;;11.13;;
27576;SDS011;15011;53.380;10.034;2023-03-20T21:08:35;19.95;;;10.75;;
27576;SDS011;15011;53.380;10.034;2023-03-20T21:13:37;19.15;;;11.00;;
27576;SDS011;15011;53.380;10.034;2023-03-20T21:18:37;27.17;;;12.70;;
27576;SDS011;15011;53.380;10.034;2023-03-20T21:23:38;28.83;;;14.47;;
27576;SDS011;15011;53.380;10.034;2023-03-20T21:28:39;33.20;;;15.13;;
27576;SDS011;15011;53.380;10.034;2023-03-20T21:33:40;26.70;;;14.80;;
27576;SDS011;15011;53.380;10.034;2023-03-20T21:38:40;27.73;;;16.40;;
27576;SDS011;15011;53.380;10.034;2023-03-20T21:43:41;31.13;;;18.17;;
27576;SDS011;15011;53.380;10.034;2023-03-20T21:48:45;25.02;;;17.08;;
27576;SDS011;15011;53.380;10.034;2023-03-20T21:53:46;28.92;;;16.95;;
27576;SDS011;15011;53.380;10.034;2023-03-20T21:58:46;31.67;;;20.35;;
27576;SDS011;15011;53.380;10.034;2023-03-20T22:03:46;36.88;;;21.83;;
27576;SDS011;15011;53.380;10.034;2023-03-20T22:08:47;41.10;;;23.23;;
27576;SDS011;15011;53.380;10.034;2023-03-20T22:13:47;37.90;;;22.70;;
27576;SDS011;15011;53.380;10.034;2023-03-20T22:18:48;40.85;;;24.17;;
27576;SDS011;15011;53.380;10.034;2023-03-20T22:23:48;35.65;;;22.65;;
27576;SDS011;15011;53.380;10.034;2023-03-20T22:28:49;38.40;;;21.23;;
27576;SDS011;15011;53.380;10.034;2023-03-20T22:33:49;53.72;;;26.15;;
27576;SDS011;15011;53.380;10.034;2023-03-20T22:38:50;44.17;;;23.80;;
27576;SDS011;15011;53.380;10.034;2023-03-20T22:43:50;39.10;;;24.40;;
27576;SDS011;15011;53.380;10.034;2023-03-20T22:48:51;53.50;;;26.88;;
27576;SDS011;15011;53.380;10.034;2023-03-20T22:53:51;47.13;;;25.55;;
27576;SDS011;15011;53.380;10.034;2023-03-20T22:58:52;53.95;;;29.00;;
27576;SDS011;15011;53.380;10.034;2023-03-20T23:03:52;51.80;;;26.25;;
27576;SDS011;15011;53.380;10.034;2023-03-20T23:08:53;57.05;;;30.27;;
27576;SDS011;15011;53.380;10.034;2023-03-20T23:13:55;58.93;;;30.60;;
27576;SDS011;15011;53.380;10.034;2023-03-20T23:18:56;53.90;;;29.67;;
27576;SDS011;15011;53.380;10.034;2023-03-20T23:23:56;55.60;;;30.67;;
27576;SDS011;15011;53.380;10.034;2023-03-20T23:28:56;63.88;;;32.38;;
27576;SDS011;15011;53.380;10.034;2023-03-20T23:33:57;56.78;;;31.95;;
27576;SDS011;15011;53.380;10.034;2023-03-20T23:38:57;61.10;;;31.25;;
27576;SDS011;15011;53.380;10.034;2023-03-20T23:43:58;63.10;;;33.90;;
27576;SDS011;15011;53.380;10.034;2023-03-20T23:48:58;58.55;;;32.00;;
27576;SDS011;15011;53.380;10.034;2023-03-20T23:53:59;70.75;;;34.10;;
27576;SDS011;15011;53.380;10.034;2023-03-20T23:58:59;69.35;;;34.85;;
